createdAt,value
2023-01-27T00:00:48.873Z,8.65
2023-01-27T00:03:15.670Z,7.30
2023-01-27T00:05:43.782Z,7.10
2023-01-27T00:08:10.912Z,7.63
2023-01-27T00:10:38.394Z,7.32
2023-01-27T00:13:05.060Z,7.90
2023-01-27T00:15:32.850Z,7.20
2023-01-27T00:17:59.776Z,7.95
2023-01-27T00:20:26.529Z,7.20
2023-01-27T00:22:54.546Z,7.47
2023-01-27T00:25:21.369Z,7.55
2023-01-27T00:27:48.134Z,7.40
2023-01-27T00:30:15.140Z,7.25
2023-01-27T00:32:41.805Z,6.90
2023-01-27T00:35:08.808Z,6.90
2023-01-27T00:37:35.499Z,8.10
2023-01-27T00:40:03.855Z,8.13
2023-01-27T00:42:30.498Z,7.53
2023-01-27T00:44:57.184Z,6.83
2023-01-27T00:47:23.890Z,7.47
2023-01-27T00:49:50.570Z,7.47
2023-01-27T00:52:17.231Z,7.25
2023-01-27T00:54:43.877Z,7.35
2023-01-27T00:57:11.896Z,6.60
2023-01-27T00:59:38.552Z,6.28
2023-01-27T01:02:05.273Z,6.97
2023-01-27T01:04:31.973Z,6.80
2023-01-27T01:06:58.663Z,6.18
2023-01-27T01:09:35.077Z,7.20
2023-01-27T01:12:01.785Z,6.13
2023-01-27T01:14:29.859Z,6.32
2023-01-27T01:16:56.610Z,7.07
2023-01-27T01:19:23.378Z,6.65
2023-01-27T01:21:50.307Z,6.17
2023-01-27T01:24:17.800Z,5.60
2023-01-27T01:26:44.519Z,6.70
2023-01-27T01:29:11.236Z,6.47
2023-01-27T01:31:39.393Z,5.75
2023-01-27T01:34:06.250Z,6.73
2023-01-27T01:36:33.045Z,6.50
2023-01-27T01:38:59.761Z,6.07
2023-01-27T01:41:26.686Z,6.63
2023-01-27T01:43:53.468Z,6.63
2023-01-27T01:46:20.823Z,5.97
2023-01-27T01:48:52.993Z,6.95
2023-01-27T01:51:25.289Z,7.22
2023-01-27T01:53:57.119Z,5.90
2023-01-27T01:56:27.034Z,7.20
2023-01-27T01:58:55.605Z,6.17
2023-01-27T02:01:22.315Z,5.13
2023-01-27T02:03:56.176Z,5.95
2023-01-27T02:06:23.116Z,5.50
2023-01-27T02:08:51.109Z,5.78
2023-01-27T02:11:18.107Z,4.80
2023-01-27T02:13:45.471Z,5.75
2023-01-27T02:16:12.611Z,6.22
2023-01-27T02:18:41.394Z,5.78
2023-01-27T02:21:09.755Z,5.78
2023-01-27T02:23:56.453Z,5.80
2023-01-27T02:26:28.163Z,5.80
2023-01-27T02:28:56.349Z,5.57
2023-01-27T02:31:23.709Z,4.60
2023-01-27T02:33:52.914Z,5.03
2023-01-27T02:36:19.603Z,5.30
2023-01-27T02:38:48.645Z,5.85
2023-01-27T02:41:21.411Z,5.78
2023-01-27T02:43:51.860Z,4.43
2023-01-27T02:46:18.881Z,5.13
2023-01-27T02:48:45.660Z,4.47
2023-01-27T02:51:12.768Z,4.93
2023-01-27T02:53:39.681Z,4.70
2023-01-27T02:56:07.001Z,5.03
2023-01-27T02:58:33.840Z,4.32
2023-01-27T03:01:02.057Z,4.57
2023-01-27T03:03:28.817Z,5.03
2023-01-27T03:05:55.611Z,3.83
2023-01-27T03:08:22.299Z,4.57
2023-01-27T03:10:50.827Z,3.47
2023-01-27T03:13:21.360Z,4.00
2023-01-27T03:15:48.096Z,4.78
2023-01-27T03:18:16.250Z,4.43
2023-01-27T03:20:44.876Z,3.85
2023-01-27T03:23:12.525Z,3.75
2023-01-27T03:25:41.407Z,3.43
2023-01-27T03:28:08.585Z,4.15
2023-01-27T03:30:35.566Z,4.68
2023-01-27T03:33:02.440Z,4.25
2023-01-27T03:35:30.581Z,4.25
2023-01-27T03:37:57.254Z,4.30
2023-01-27T03:40:23.941Z,4.65
2023-01-27T03:42:52.712Z,4.53
2023-01-27T03:45:19.461Z,3.58
2023-01-27T03:47:46.141Z,3.97
2023-01-27T03:50:12.731Z,4.40
2023-01-27T03:52:40.936Z,4.45
2023-01-27T03:55:08.372Z,4.57
2023-01-27T03:57:36.911Z,4.38
2023-01-27T04:00:04.922Z,4.72
2023-01-27T04:02:33.116Z,5.07
2023-01-27T04:04:59.840Z,4.63
2023-01-27T04:07:26.615Z,5.10
2023-01-27T04:09:54.777Z,5.28
2023-01-27T04:12:21.463Z,4.63
2023-01-27T04:14:48.193Z,4.57
2023-01-27T04:17:17.039Z,4.60
2023-01-27T04:19:44.043Z,6.07
2023-01-27T04:22:11.474Z,5.68
2023-01-27T04:24:38.202Z,4.53
2023-01-27T04:27:08.335Z,5.30
2023-01-27T04:29:37.196Z,4.63
2023-01-27T04:32:04.598Z,5.32
2023-01-27T04:34:31.620Z,5.22
2023-01-27T04:36:59.078Z,4.35
2023-01-27T04:39:26.186Z,4.57
2023-01-27T04:41:52.856Z,4.72
2023-01-27T04:44:21.399Z,5.28
2023-01-27T04:46:48.738Z,4.70
2023-01-27T04:49:15.434Z,4.28
2023-01-27T04:51:42.141Z,4.70
2023-01-27T04:54:11.919Z,5.13
2023-01-27T04:56:40.204Z,5.05
2023-01-27T04:59:08.427Z,5.20
2023-01-27T05:01:36.552Z,4.30
2023-01-27T05:04:03.360Z,5.13
2023-01-27T05:06:30.137Z,4.45
2023-01-27T05:08:56.798Z,4.53
2023-01-27T05:11:23.452Z,4.15
2023-01-27T05:13:50.106Z,4.10
2023-01-27T05:16:18.627Z,3.87
2023-01-27T05:18:48.365Z,3.75
2023-01-27T05:21:17.429Z,3.53
2023-01-27T05:23:44.257Z,3.88
2023-01-27T05:26:13.111Z,4.28
2023-01-27T05:28:41.428Z,3.40
2023-01-27T05:31:10.961Z,3.53
2023-01-27T05:33:38.406Z,3.78
2023-01-27T05:36:08.592Z,3.78
2023-01-27T05:38:35.696Z,3.85
2023-01-27T05:41:03.882Z,3.50
2023-01-27T05:43:32.243Z,3.60
2023-01-27T05:46:04.416Z,3.55
2023-01-27T05:48:31.521Z,3.22
2023-01-27T05:50:59.441Z,4.28
2023-01-27T05:53:27.546Z,4.40
2023-01-27T05:55:54.651Z,3.38
2023-01-27T05:58:22.047Z,3.97
2023-01-27T06:00:49.185Z,3.55
2023-01-27T06:03:15.966Z,3.80
2023-01-27T06:05:56.270Z,4.10
2023-01-27T06:08:24.370Z,3.20
2023-01-27T06:10:53.533Z,3.10
2023-01-27T06:13:22.415Z,2.45
2023-01-27T06:15:49.668Z,3.78
2023-01-27T06:18:17.929Z,3.57
2023-01-27T06:20:45.246Z,2.88
2023-01-27T06:23:13.711Z,3.63
2023-01-27T06:25:42.023Z,3.15
2023-01-27T06:28:14.521Z,3.10
2023-01-27T06:30:46.670Z,2.13
2023-01-27T06:33:14.870Z,2.50
2023-01-27T06:35:41.728Z,3.58
2023-01-27T06:38:12.479Z,3.03
2023-01-27T06:40:39.337Z,2.95
2023-01-27T06:43:12.604Z,2.50
2023-01-27T06:45:39.337Z,3.00
2023-01-27T06:48:06.298Z,3.17
2023-01-27T06:50:32.972Z,2.50
2023-01-27T06:53:01.263Z,3.05
2023-01-27T06:55:28.700Z,1.77
2023-01-27T06:57:55.410Z,2.22
2023-01-27T07:00:23.854Z,2.38
2023-01-27T07:02:50.716Z,2.88
2023-01-27T07:05:17.597Z,2.13
2023-01-27T07:07:44.311Z,2.63
2023-01-27T07:10:12.099Z,2.65
2023-01-27T07:12:39.454Z,2.60
2023-01-27T07:15:08.150Z,2.72
2023-01-27T07:17:36.527Z,2.50
2023-01-27T07:20:05.309Z,2.43
2023-01-27T07:22:32.373Z,2.58
2023-01-27T07:24:59.036Z,2.60
2023-01-27T07:27:25.985Z,2.60
2023-01-27T07:29:52.766Z,2.90
2023-01-27T07:32:19.573Z,2.50
2023-01-27T07:34:47.682Z,3.17
2023-01-27T07:37:14.581Z,2.70
2023-01-27T07:39:41.408Z,2.95
2023-01-27T07:42:09.092Z,3.28
2023-01-27T07:44:35.803Z,2.47
2023-01-27T07:47:02.549Z,2.25
2023-01-27T07:49:29.229Z,2.40
2023-01-27T07:51:57.265Z,2.53
2023-01-27T07:54:24.024Z,2.50
2023-01-27T07:56:50.686Z,2.17
2023-01-27T07:59:17.367Z,2.30
2023-01-27T08:01:45.198Z,2.45
2023-01-27T08:04:12.703Z,2.38
2023-01-27T08:06:39.428Z,2.42
2023-01-27T08:09:07.450Z,2.67
2023-01-27T08:11:34.120Z,3.00
2023-01-27T08:14:00.956Z,2.38
2023-01-27T08:16:27.909Z,2.90
2023-01-27T08:18:55.343Z,2.33
2023-01-27T08:21:22.046Z,2.93
2023-01-27T08:23:48.724Z,2.38
2023-01-27T08:26:18.315Z,2.42
2023-01-27T08:28:44.975Z,2.65
2023-01-27T08:31:14.028Z,2.67
2023-01-27T08:33:41.794Z,2.30
2023-01-27T08:36:11.177Z,2.95
2023-01-27T08:38:38.054Z,3.28
2023-01-27T08:41:06.099Z,2.45
2023-01-27T08:43:34.631Z,2.45
2023-01-27T08:46:01.645Z,2.37
2023-01-27T08:48:28.684Z,2.17
2023-01-27T08:50:55.781Z,2.20
2023-01-27T08:53:22.636Z,2.63
2023-01-27T08:55:49.528Z,2.22
2023-01-27T08:58:16.536Z,2.13
2023-01-27T09:00:45.112Z,2.55
2023-01-27T09:03:11.807Z,2.67
2023-01-27T09:05:38.634Z,1.70
2023-01-27T09:08:05.863Z,2.72
2023-01-27T09:10:32.574Z,2.33
2023-01-27T09:12:59.273Z,2.60
2023-01-27T09:15:25.955Z,2.53
2023-01-27T09:17:54.033Z,2.83
2023-01-27T09:20:20.785Z,1.90
2023-01-27T09:22:47.467Z,2.30
2023-01-27T09:25:16.736Z,2.00
2023-01-27T09:27:43.671Z,2.38
2023-01-27T09:30:12.394Z,2.63
2023-01-27T09:32:39.672Z,2.45
2023-01-27T09:35:08.936Z,1.63
2023-01-27T09:37:40.381Z,1.92
2023-01-27T09:40:15.535Z,2.60
2023-01-27T09:42:53.017Z,2.40
2023-01-27T09:45:34.858Z,2.30
2023-01-27T09:48:15.643Z,2.10
2023-01-27T09:50:52.706Z,2.25
2023-01-27T09:53:47.709Z,2.30
2023-01-27T09:56:22.598Z,2.28
2023-01-27T09:59:05.059Z,1.92
2023-01-27T10:01:40.762Z,2.07
2023-01-27T10:04:23.300Z,2.28
2023-01-27T10:07:04.274Z,2.35
2023-01-27T10:09:53.966Z,2.20
2023-01-27T10:12:34.433Z,2.13
2023-01-27T10:15:12.373Z,2.10
2023-01-27T10:17:50.785Z,2.22
2023-01-27T10:20:25.167Z,2.03
2023-01-27T10:23:08.612Z,1.92
2023-01-27T10:25:48.961Z,1.65
2023-01-27T10:28:21.407Z,1.87
2023-01-27T10:30:55.536Z,1.98
2023-01-27T10:33:29.776Z,1.52
2023-01-27T10:35:59.320Z,1.95
2023-01-27T10:38:37.727Z,1.70
2023-01-27T10:41:18.230Z,1.63
2023-01-27T10:43:57.619Z,1.90
2023-01-27T10:46:32.706Z,2.00
2023-01-27T10:49:06.945Z,1.70
2023-01-27T10:51:38.911Z,1.60
2023-01-27T10:54:12.179Z,1.93
2023-01-27T10:56:42.915Z,1.80
2023-01-27T10:59:19.014Z,2.13
2023-01-27T11:01:51.624Z,1.90
2023-01-27T11:04:34.508Z,1.48
2023-01-27T11:07:01.513Z,1.50
2023-01-27T11:09:32.807Z,1.70
2023-01-27T11:12:05.145Z,1.50
2023-01-27T11:14:38.878Z,1.63
2023-01-27T11:17:16.694Z,2.00
2023-01-27T11:19:54.344Z,1.73
2023-01-27T11:22:24.053Z,1.83
2023-01-27T11:25:01.109Z,1.65
2023-01-27T11:27:46.731Z,2.05
2023-01-27T11:30:19.691Z,1.85
2023-01-27T11:32:56.885Z,1.90
2023-01-27T11:35:23.789Z,1.95
2023-01-27T11:37:52.747Z,2.38
2023-01-27T11:40:27.945Z,1.88
2023-01-27T11:42:56.453Z,2.20
2023-01-27T11:45:23.986Z,1.70
2023-01-27T11:47:55.713Z,1.95
2023-01-27T11:50:24.261Z,2.80
2023-01-27T11:52:55.250Z,2.25
2023-01-27T11:55:26.662Z,2.38
2023-01-27T11:57:57.621Z,2.33
2023-01-27T12:00:28.804Z,2.60
2023-01-27T12:03:06.040Z,2.60
2023-01-27T12:05:36.515Z,2.50
2023-01-27T12:08:05.411Z,2.40
2023-01-27T12:10:35.345Z,2.80
2023-01-27T12:13:08.541Z,2.20
2023-01-27T12:15:36.181Z,2.40
2023-01-27T12:18:12.078Z,2.58
2023-01-27T12:20:40.456Z,2.80
2023-01-27T12:23:19.719Z,2.00
2023-01-27T12:25:52.916Z,2.40
2023-01-27T12:28:27.236Z,2.58
2023-01-27T12:30:57.549Z,2.47
2023-01-27T12:33:29.317Z,2.85
2023-01-27T12:35:59.647Z,2.43
2023-01-27T12:38:28.977Z,2.97
2023-01-27T12:40:59.360Z,2.60
2023-01-27T12:43:26.184Z,1.92
2023-01-27T12:46:20.671Z,2.50
2023-01-27T12:48:49.160Z,2.80
2023-01-27T12:51:18.773Z,2.67
2023-01-27T12:53:47.518Z,3.13
2023-01-27T12:56:17.698Z,2.97
2023-01-27T12:58:46.260Z,2.42
2023-01-27T13:01:24.541Z,2.20
2023-01-27T13:03:54.217Z,2.03
2023-01-27T13:06:38.654Z,2.28
2023-01-27T13:09:05.534Z,2.30
2023-01-27T13:11:40.134Z,1.80
2023-01-27T13:14:17.192Z,2.40
2023-01-27T13:16:52.854Z,2.60
2023-01-27T13:19:20.549Z,2.97
2023-01-27T13:21:50.405Z,3.28
2023-01-27T13:24:31.746Z,2.47
2023-01-27T13:27:02.380Z,2.60
2023-01-27T13:29:33.748Z,2.53
2023-01-27T13:32:05.567Z,2.50
2023-01-27T13:34:38.791Z,2.40
2023-01-27T13:37:13.197Z,2.38
2023-01-27T13:39:56.833Z,2.63
2023-01-27T13:42:33.412Z,2.78
2023-01-27T13:45:04.354Z,2.75
2023-01-27T13:47:37.649Z,2.53
2023-01-27T13:50:16.389Z,2.47
2023-01-27T13:52:43.719Z,2.43
2023-01-27T13:55:12.345Z,2.60
2023-01-27T13:57:54.390Z,2.33
2023-01-27T14:00:25.088Z,2.55
2023-01-27T14:03:14.901Z,2.25
2023-01-27T14:05:55.173Z,2.20
2023-01-27T14:08:40.145Z,1.77
2023-01-27T14:11:15.844Z,2.45
2023-01-27T14:13:55.980Z,2.20
2023-01-27T14:16:31.565Z,2.10
2023-01-27T14:19:05.619Z,2.00
2023-01-27T14:21:42.924Z,1.92
2023-01-27T14:24:23.333Z,2.38
2023-01-27T14:26:55.858Z,2.08
2023-01-27T14:29:32.830Z,1.67
2023-01-27T14:32:07.383Z,1.70
2023-01-27T14:35:03.519Z,1.65
2023-01-27T14:37:36.975Z,2.15
2023-01-27T14:40:17.301Z,2.00
2023-01-27T14:42:52.571Z,1.85
2023-01-27T14:45:24.145Z,1.70
2023-01-27T14:47:59.033Z,1.85
2023-01-27T14:50:33.755Z,2.03
2023-01-27T14:53:15.744Z,1.77
2023-01-27T14:55:48.649Z,1.52
2023-01-27T14:58:36.166Z,1.50
2023-01-27T15:01:12.820Z,1.50
2023-01-27T15:04:17.536Z,1.33
2023-01-27T15:06:46.598Z,1.00
2023-01-27T15:09:23.358Z,1.20
2023-01-27T15:12:28.458Z,1.00
2023-01-27T15:15:21.192Z,1.15
2023-01-27T15:18:01.514Z,0.95
2023-01-27T15:20:53.903Z,0.90
2023-01-27T15:23:44.102Z,0.80
2023-01-27T15:26:12.506Z,1.10
2023-01-27T15:28:41.637Z,1.00
2023-01-27T15:31:21.858Z,1.08
2023-01-27T15:33:55.852Z,0.93
2023-01-27T15:36:34.128Z,0.90
2023-01-27T15:39:16.138Z,1.00
2023-01-27T15:41:52.367Z,0.80
2023-01-27T15:44:27.771Z,0.80
2023-01-27T15:46:56.171Z,0.65
2023-01-27T15:49:27.097Z,0.80
2023-01-27T15:51:56.773Z,0.60
2023-01-27T15:54:26.877Z,0.90
2023-01-27T15:56:55.367Z,0.60
2023-01-27T15:59:24.904Z,0.80
2023-01-27T16:02:02.559Z,0.73
2023-01-27T16:04:32.252Z,1.10
2023-01-27T16:07:02.707Z,0.70
2023-01-27T16:09:40.612Z,1.40
2023-01-27T16:12:39.656Z,0.98
2023-01-27T16:15:34.108Z,0.80
2023-01-27T16:18:22.848Z,0.70
2023-01-27T16:20:53.899Z,0.80
2023-01-27T16:23:31.818Z,0.75
2023-01-27T16:26:09.496Z,1.30
2023-01-27T16:28:38.343Z,0.60
2023-01-27T16:31:11.125Z,0.70
2023-01-27T16:33:39.551Z,1.08
2023-01-27T16:36:08.634Z,1.50
2023-01-27T16:38:38.198Z,1.30
2023-01-27T16:41:15.984Z,1.23
2023-01-27T16:43:49.007Z,1.50
2023-01-27T16:46:27.977Z,2.30
2023-01-27T16:48:54.663Z,3.70
2023-01-27T16:51:23.522Z,1.85
2023-01-27T16:53:52.042Z,1.23
2023-01-27T16:56:25.106Z,1.70
2023-01-27T16:58:58.517Z,1.88
2023-01-27T17:01:27.655Z,1.50
2023-01-27T17:04:04.852Z,2.13
2023-01-27T17:06:38.076Z,15.20
2023-01-27T17:09:20.034Z,4.33
2023-01-27T17:11:46.783Z,3.90
2023-01-27T17:14:30.011Z,3.03
2023-01-27T17:16:59.407Z,3.17
2023-01-27T17:19:30.003Z,2.10
2023-01-27T17:21:58.454Z,1.60
2023-01-27T17:24:28.892Z,2.65
2023-01-27T17:27:00.612Z,1.92
2023-01-27T17:29:34.574Z,1.50
2023-01-27T17:32:01.537Z,1.40
2023-01-27T17:34:28.599Z,2.00
2023-01-27T17:37:14.471Z,1.52
2023-01-27T17:39:41.856Z,1.20
2023-01-27T17:42:14.136Z,1.38
2023-01-27T17:44:42.383Z,1.05
2023-01-27T17:47:13.171Z,1.53
2023-01-27T17:49:40.433Z,1.73
2023-01-27T17:52:09.111Z,1.65
2023-01-27T17:54:37.256Z,1.15
2023-01-27T17:57:08.825Z,1.70
2023-01-27T17:59:40.725Z,2.13
2023-01-27T18:02:16.892Z,1.40
2023-01-27T18:04:43.956Z,1.30
2023-01-27T18:07:11.304Z,1.38
2023-01-27T18:09:44.138Z,1.45
2023-01-27T18:12:28.339Z,1.73
2023-01-27T18:14:55.082Z,1.63
2023-01-27T18:17:24.761Z,2.85
2023-01-27T18:19:53.313Z,1.70
2023-01-27T18:22:20.760Z,3.17
2023-01-27T18:24:49.953Z,2.80
2023-01-27T18:27:23.571Z,2.10
2023-01-27T18:29:52.930Z,2.20
2023-01-27T18:32:21.992Z,1.95
2023-01-27T18:34:52.300Z,2.38
2023-01-27T18:37:26.655Z,2.40
2023-01-27T18:39:54.036Z,3.78
2023-01-27T18:42:22.373Z,4.00
2023-01-27T18:44:49.736Z,3.15
2023-01-27T18:47:34.691Z,2.53
2023-01-27T18:50:13.589Z,2.00
2023-01-27T18:52:40.416Z,2.85
2023-01-27T18:55:14.222Z,3.28
2023-01-27T18:57:41.097Z,2.38
2023-01-27T19:00:10.195Z,3.35
2023-01-27T19:02:37.160Z,2.90
2023-01-27T19:05:14.888Z,3.47
2023-01-27T19:07:41.780Z,3.10
2023-01-27T19:10:17.100Z,2.20
2023-01-27T19:12:44.064Z,2.40
2023-01-27T19:15:13.584Z,2.40
2023-01-27T19:17:40.474Z,2.22
2023-01-27T19:20:17.375Z,2.38
2023-01-27T19:22:44.922Z,2.70
2023-01-27T19:25:12.056Z,3.60
2023-01-27T19:27:41.441Z,2.87
2023-01-27T19:30:24.633Z,2.97
2023-01-27T19:32:51.683Z,2.97
2023-01-27T19:35:19.855Z,3.13
2023-01-27T19:37:47.302Z,3.47
2023-01-27T19:40:18.470Z,3.37
2023-01-27T19:42:45.394Z,3.17
2023-01-27T19:45:14.518Z,2.97
2023-01-27T19:47:41.671Z,2.92
2023-01-27T19:50:15.969Z,3.50
2023-01-27T19:52:44.112Z,2.90
2023-01-27T19:55:10.809Z,3.20
2023-01-27T19:57:37.551Z,3.40
2023-01-27T20:00:05.173Z,3.30
2023-01-27T20:02:31.978Z,2.95
2023-01-27T20:04:58.716Z,3.13
2023-01-27T20:07:25.425Z,3.42
2023-01-27T20:09:53.509Z,3.42
2023-01-27T20:12:20.211Z,2.60
2023-01-27T20:14:46.908Z,3.00
2023-01-27T20:17:13.580Z,3.43
2023-01-27T20:19:40.270Z,10.52
2023-01-27T20:22:09.668Z,6.20
2023-01-27T20:24:36.339Z,3.63
2023-01-27T20:27:04.523Z,2.88
2023-01-27T20:29:31.255Z,3.10
2023-01-27T20:31:57.924Z,2.00
2023-01-27T20:34:24.637Z,2.45
2023-01-27T20:36:51.329Z,3.90
2023-01-27T20:39:18.254Z,4.28
2023-01-27T20:41:44.913Z,2.30
2023-01-27T20:44:12.972Z,3.00
2023-01-27T20:46:39.780Z,2.42
2023-01-27T20:49:06.572Z,2.28
2023-01-27T20:51:33.273Z,2.35
2023-01-27T20:53:59.960Z,1.80
2023-01-27T20:56:26.785Z,1.50
2023-01-27T20:58:53.483Z,2.30
2023-01-27T21:01:23.113Z,1.70
2023-01-27T21:03:50.410Z,1.58
2023-01-27T21:06:17.554Z,1.10
2023-01-27T21:08:44.256Z,1.80
2023-01-27T21:11:11.421Z,1.38
2023-01-27T21:13:38.638Z,1.42
2023-01-27T21:16:05.999Z,1.23
2023-01-27T21:18:35.120Z,1.80
2023-01-27T21:21:01.936Z,1.35
2023-01-27T21:23:28.712Z,1.42
2023-01-27T21:25:55.722Z,1.10
2023-01-27T21:28:22.508Z,1.52
2023-01-27T21:30:49.325Z,1.80
2023-01-27T21:33:16.052Z,1.17
2023-01-27T21:35:44.157Z,1.42
2023-01-27T21:38:10.850Z,1.27
2023-01-27T21:40:37.601Z,1.67
2023-01-27T21:43:04.254Z,1.87
2023-01-27T21:45:30.973Z,1.70
2023-01-27T21:47:57.638Z,1.80
2023-01-27T21:50:24.334Z,1.67
2023-01-27T21:52:52.377Z,1.70
2023-01-27T21:55:20.956Z,1.60
2023-01-27T21:57:49.037Z,2.95
2023-01-27T22:00:18.194Z,2.65
2023-01-27T22:02:44.956Z,1.80
2023-01-27T22:05:13.040Z,1.40
2023-01-27T22:07:39.921Z,1.40
2023-01-27T22:10:13.166Z,1.70
2023-01-27T22:12:40.111Z,1.92
2023-01-27T22:15:07.917Z,1.30
2023-01-27T22:17:35.004Z,1.50
2023-01-27T22:20:01.752Z,1.50
2023-01-27T22:22:28.451Z,1.42
2023-01-27T22:24:55.163Z,1.77
2023-01-27T22:27:23.438Z,1.75
2023-01-27T22:29:50.187Z,1.40
2023-01-27T22:32:16.862Z,1.40
2023-01-27T22:34:43.595Z,1.38
2023-01-27T22:37:10.307Z,1.50
2023-01-27T22:39:36.987Z,1.15
2023-01-27T22:42:04.000Z,1.45
2023-01-27T22:44:32.112Z,1.10
2023-01-27T22:46:58.869Z,1.80
2023-01-27T22:49:25.661Z,1.48
2023-01-27T22:51:52.334Z,1.27
2023-01-27T22:54:19.148Z,1.70
2023-01-27T22:56:45.898Z,1.40
2023-01-27T22:59:13.206Z,1.95
2023-01-27T23:01:41.303Z,1.90
2023-01-27T23:04:10.393Z,2.10
2023-01-27T23:06:37.121Z,2.00
2023-01-27T23:09:03.892Z,1.90
2023-01-27T23:11:30.677Z,2.08
2023-01-27T23:13:57.343Z,1.80
2023-01-27T23:16:24.094Z,1.70
2023-01-27T23:18:52.192Z,1.55
2023-01-27T23:21:18.953Z,1.50
2023-01-27T23:23:45.723Z,1.42
2023-01-27T23:26:12.574Z,1.65
2023-01-27T23:28:39.523Z,1.50
2023-01-27T23:31:09.214Z,1.80
2023-01-27T23:33:37.579Z,1.70
2023-01-27T23:36:06.651Z,1.80
2023-01-27T23:38:33.827Z,1.90
2023-01-27T23:41:01.329Z,1.38
2023-01-27T23:43:27.986Z,1.73
2023-01-27T23:45:54.966Z,1.67
2023-01-27T23:48:23.054Z,1.80
2023-01-27T23:50:50.054Z,1.70
2023-01-27T23:53:18.211Z,2.08
2023-01-27T23:55:44.882Z,1.83
2023-01-27T23:58:11.612Z,1.20
